sensor_id;sensor_type;location;lat;lon;timestamp;P1;durP1;ratioP1;P2;durP2;ratioP2
20832;SDS011;56075;51.264;7.150;2023-04-16T00:02:02;54.20;;;15.50;;
20832;SDS011;56075;51.264;7.150;2023-04-16T00:04:33;54.23;;;14.47;;
20832;SDS011;56075;51.264;7.150;2023-04-16T00:07:05;51.03;;;15.37;;
20832;SDS011;56075;51.264;7.150;2023-04-16T00:09:36;51.33;;;14.87;;
20832;SDS011;56075;51.264;7.150;2023-04-16T00:12:07;54.57;;;15.23;;
20832;SDS011;56075;51.264;7.150;2023-04-16T00:14:39;54.70;;;14.43;;
20832;SDS011;56075;51.264;7.150;2023-04-16T00:17:12;55.17;;;15.60;;
20832;SDS011;56075;51.264;7.150;2023-04-16T00:19:44;54.50;;;14.13;;
20832;SDS011;56075;51.264;7.150;2023-04-16T00:22:15;54.10;;;15.03;;
20832;SDS011;56075;51.264;7.150;2023-04-16T00:24:46;49.67;;;13.93;;
20832;SDS011;56075;51.264;7.150;2023-04-16T00:27:18;49.13;;;14.57;;
20832;SDS011;56075;51.264;7.150;2023-04-16T00:29:49;57.73;;;15.63;;
20832;SDS011;56075;51.264;7.150;2023-04-16T00:32:20;48.77;;;13.47;;
20832;SDS011;56075;51.264;7.150;2023-04-16T00:34:52;55.80;;;14.67;;
20832;SDS011;56075;51.264;7.150;2023-04-16T00:37:23;47.77;;;13.90;;
20832;SDS011;56075;51.264;7.150;2023-04-16T00:39:54;48.70;;;13.27;;
20832;SDS011;56075;51.264;7.150;2023-04-16T00:42:26;43.27;;;13.93;;
20832;SDS011;56075;51.264;7.150;2023-04-16T00:44:57;51.77;;;13.70;;
20832;SDS011;56075;51.264;7.150;2023-04-16T00:47:29;53.13;;;14.53;;
20832;SDS011;56075;51.264;7.150;2023-04-16T00:50:02;55.37;;;15.53;;
20832;SDS011;56075;51.264;7.150;2023-04-16T00:52:34;53.30;;;15.03;;
20832;SDS011;56075;51.264;7.150;2023-04-16T00:55:05;63.60;;;17.43;;
20832;SDS011;56075;51.264;7.150;2023-04-16T00:57:37;56.53;;;16.80;;
20832;SDS011;56075;51.264;7.150;2023-04-16T01:00:09;66.67;;;17.63;;
20832;SDS011;56075;51.264;7.150;2023-04-16T01:02:41;61.67;;;16.60;;
20832;SDS011;56075;51.264;7.150;2023-04-16T01:05:12;70.70;;;18.70;;
20832;SDS011;56075;51.264;7.150;2023-04-16T01:07:44;72.70;;;18.03;;
20832;SDS011;56075;51.264;7.150;2023-04-16T01:10:15;62.17;;;18.07;;
20832;SDS011;56075;51.264;7.150;2023-04-16T01:12:46;69.97;;;18.20;;
20832;SDS011;56075;51.264;7.150;2023-04-16T01:15:18;66.63;;;17.50;;
20832;SDS011;56075;51.264;7.150;2023-04-16T01:17:49;62.53;;;17.27;;
20832;SDS011;56075;51.264;7.150;2023-04-16T01:20:21;65.70;;;16.67;;
20832;SDS011;56075;51.264;7.150;2023-04-16T01:22:52;68.87;;;15.57;;
20832;SDS011;56075;51.264;7.150;2023-04-16T01:25:24;57.03;;;17.10;;
20832;SDS011;56075;51.264;7.150;2023-04-16T01:27:55;58.47;;;17.10;;
20832;SDS011;56075;51.264;7.150;2023-04-16T01:30:28;64.30;;;16.70;;
20832;SDS011;56075;51.264;7.150;2023-04-16T01:33:26;62.97;;;17.53;;
20832;SDS011;56075;51.264;7.150;2023-04-16T01:35:57;68.57;;;18.50;;
20832;SDS011;56075;51.264;7.150;2023-04-16T01:38:28;81.60;;;19.07;;
20832;SDS011;56075;51.264;7.150;2023-04-16T01:40:59;66.20;;;18.20;;
20832;SDS011;56075;51.264;7.150;2023-04-16T01:43:31;74.27;;;19.27;;
20832;SDS011;56075;51.264;7.150;2023-04-16T01:46:19;81.70;;;19.90;;
20832;SDS011;56075;51.264;7.150;2023-04-16T01:48:57;92.93;;;21.80;;
20832;SDS011;56075;51.264;7.150;2023-04-16T01:51:28;79.40;;;20.20;;
20832;SDS011;56075;51.264;7.150;2023-04-16T01:53:59;90.07;;;21.20;;
20832;SDS011;56075;51.264;7.150;2023-04-16T01:56:30;83.97;;;21.33;;
20832;SDS011;56075;51.264;7.150;2023-04-16T01:59:02;87.97;;;21.23;;
20832;SDS011;56075;51.264;7.150;2023-04-16T02:01:39;87.97;;;22.80;;
20832;SDS011;56075;51.264;7.150;2023-04-16T02:04:11;88.43;;;22.90;;
20832;SDS011;56075;51.264;7.150;2023-04-16T02:06:43;87.00;;;22.80;;
20832;SDS011;56075;51.264;7.150;2023-04-16T02:09:17;85.93;;;22.47;;
20832;SDS011;56075;51.264;7.150;2023-04-16T02:11:48;89.87;;;22.23;;
20832;SDS011;56075;51.264;7.150;2023-04-16T02:14:19;76.70;;;20.43;;
20832;SDS011;56075;51.264;7.150;2023-04-16T02:16:55;87.07;;;22.87;;
20832;SDS011;56075;51.264;7.150;2023-04-16T02:19:43;77.27;;;21.30;;
20832;SDS011;56075;51.264;7.150;2023-04-16T02:22:14;78.77;;;20.47;;
20832;SDS011;56075;51.264;7.150;2023-04-16T02:24:46;74.83;;;19.93;;
20832;SDS011;56075;51.264;7.150;2023-04-16T02:27:19;71.90;;;19.53;;
20832;SDS011;56075;51.264;7.150;2023-04-16T02:30:01;74.70;;;18.83;;
20832;SDS011;56075;51.264;7.150;2023-04-16T02:32:36;71.80;;;18.90;;
20832;SDS011;56075;51.264;7.150;2023-04-16T02:35:07;69.40;;;18.60;;
20832;SDS011;56075;51.264;7.150;2023-04-16T02:37:39;62.87;;;18.13;;
20832;SDS011;56075;51.264;7.150;2023-04-16T02:40:10;63.63;;;18.93;;
20832;SDS011;56075;51.264;7.150;2023-04-16T02:42:41;67.17;;;17.93;;
20832;SDS011;56075;51.264;7.150;2023-04-16T02:45:13;71.90;;;17.83;;
20832;SDS011;56075;51.264;7.150;2023-04-16T02:47:45;67.40;;;18.27;;
20832;SDS011;56075;51.264;7.150;2023-04-16T02:50:17;69.97;;;17.43;;
20832;SDS011;56075;51.264;7.150;2023-04-16T02:52:48;68.17;;;18.10;;
20832;SDS011;56075;51.264;7.150;2023-04-16T02:55:21;72.33;;;18.23;;
20832;SDS011;56075;51.264;7.150;2023-04-16T02:57:52;65.37;;;17.83;;
20832;SDS011;56075;51.264;7.150;2023-04-16T03:00:24;71.47;;;19.13;;
20832;SDS011;56075;51.264;7.150;2023-04-16T03:02:55;78.20;;;20.90;;
20832;SDS011;56075;51.264;7.150;2023-04-16T03:05:26;79.93;;;20.27;;
20832;SDS011;56075;51.264;7.150;2023-04-16T03:07:57;85.87;;;21.80;;
20832;SDS011;56075;51.264;7.150;2023-04-16T03:10:29;88.37;;;21.00;;
20832;SDS011;56075;51.264;7.150;2023-04-16T03:13:01;78.43;;;20.97;;
20832;SDS011;56075;51.264;7.150;2023-04-16T03:15:32;79.23;;;22.03;;
20832;SDS011;56075;51.264;7.150;2023-04-16T03:18:03;87.97;;;22.73;;
20832;SDS011;56075;51.264;7.150;2023-04-16T03:20:35;86.63;;;23.23;;
20832;SDS011;56075;51.264;7.150;2023-04-16T03:23:06;84.37;;;22.83;;
20832;SDS011;56075;51.264;7.150;2023-04-16T03:25:37;103.53;;;24.67;;
20832;SDS011;56075;51.264;7.150;2023-04-16T03:28:12;90.63;;;25.40;;
20832;SDS011;56075;51.264;7.150;2023-04-16T03:30:49;94.37;;;25.27;;
20832;SDS011;56075;51.264;7.150;2023-04-16T03:33:22;95.30;;;25.43;;
20832;SDS011;56075;51.264;7.150;2023-04-16T03:35:57;100.47;;;26.53;;
20832;SDS011;56075;51.264;7.150;2023-04-16T03:38:32;92.47;;;26.07;;
20832;SDS011;56075;51.264;7.150;2023-04-16T03:41:03;97.57;;;25.93;;
20832;SDS011;56075;51.264;7.150;2023-04-16T03:43:37;98.67;;;26.17;;
20832;SDS011;56075;51.264;7.150;2023-04-16T03:46:08;115.47;;;27.67;;
20832;SDS011;56075;51.264;7.150;2023-04-16T03:48:40;103.93;;;27.30;;
20832;SDS011;56075;51.264;7.150;2023-04-16T03:51:11;89.27;;;26.63;;
20832;SDS011;56075;51.264;7.150;2023-04-16T03:53:43;100.10;;;27.83;;
20832;SDS011;56075;51.264;7.150;2023-04-16T03:56:14;99.97;;;27.87;;
20832;SDS011;56075;51.264;7.150;2023-04-16T03:58:46;98.63;;;27.90;;
20832;SDS011;56075;51.264;7.150;2023-04-16T04:01:17;99.27;;;26.20;;
20832;SDS011;56075;51.264;7.150;2023-04-16T04:03:49;92.90;;;26.87;;
20832;SDS011;56075;51.264;7.150;2023-04-16T04:06:21;86.80;;;25.73;;
20832;SDS011;56075;51.264;7.150;2023-04-16T04:08:52;97.17;;;25.67;;
20832;SDS011;56075;51.264;7.150;2023-04-16T04:11:24;89.47;;;26.70;;
20832;SDS011;56075;51.264;7.150;2023-04-16T04:13:57;105.37;;;26.97;;
20832;SDS011;56075;51.264;7.150;2023-04-16T04:16:28;98.00;;;26.30;;
20832;SDS011;56075;51.264;7.150;2023-04-16T04:19:03;102.73;;;27.43;;
20832;SDS011;56075;51.264;7.150;2023-04-16T04:21:34;100.27;;;27.03;;
20832;SDS011;56075;51.264;7.150;2023-04-16T04:24:07;91.17;;;25.17;;
20832;SDS011;56075;51.264;7.150;2023-04-16T04:26:39;91.87;;;26.33;;
20832;SDS011;56075;51.264;7.150;2023-04-16T04:29:11;102.07;;;28.07;;
20832;SDS011;56075;51.264;7.150;2023-04-16T04:31:42;98.10;;;26.93;;
20832;SDS011;56075;51.264;7.150;2023-04-16T04:34:13;93.83;;;27.43;;
20832;SDS011;56075;51.264;7.150;2023-04-16T04:36:46;99.97;;;27.67;;
20832;SDS011;56075;51.264;7.150;2023-04-16T04:39:18;97.43;;;27.77;;
20832;SDS011;56075;51.264;7.150;2023-04-16T04:41:52;97.87;;;27.03;;
20832;SDS011;56075;51.264;7.150;2023-04-16T04:44:23;102.27;;;27.33;;
20832;SDS011;56075;51.264;7.150;2023-04-16T04:46:55;93.90;;;26.57;;
20832;SDS011;56075;51.264;7.150;2023-04-16T04:49:26;99.40;;;28.17;;
20832;SDS011;56075;51.264;7.150;2023-04-16T04:51:57;107.87;;;27.67;;
20832;SDS011;56075;51.264;7.150;2023-04-16T04:54:29;121.23;;;29.37;;
20832;SDS011;56075;51.264;7.150;2023-04-16T04:57:01;104.10;;;28.53;;
20832;SDS011;56075;51.264;7.150;2023-04-16T04:59:33;114.17;;;28.47;;
20832;SDS011;56075;51.264;7.150;2023-04-16T05:02:05;99.33;;;27.20;;
20832;SDS011;56075;51.264;7.150;2023-04-16T05:04:36;106.10;;;28.80;;
20832;SDS011;56075;51.264;7.150;2023-04-16T05:07:07;107.40;;;29.50;;
20832;SDS011;56075;51.264;7.150;2023-04-16T05:09:38;116.47;;;28.37;;
20832;SDS011;56075;51.264;7.150;2023-04-16T05:12:10;105.70;;;29.03;;
20832;SDS011;56075;51.264;7.150;2023-04-16T05:14:41;107.37;;;28.27;;
20832;SDS011;56075;51.264;7.150;2023-04-16T05:17:12;110.53;;;27.23;;
20832;SDS011;56075;51.264;7.150;2023-04-16T05:19:43;96.83;;;28.00;;
20832;SDS011;56075;51.264;7.150;2023-04-16T05:22:14;102.00;;;27.17;;
20832;SDS011;56075;51.264;7.150;2023-04-16T05:24:48;90.53;;;25.93;;
20832;SDS011;56075;51.264;7.150;2023-04-16T05:27:19;84.23;;;24.63;;
20832;SDS011;56075;51.264;7.150;2023-04-16T05:29:50;86.73;;;24.30;;
20832;SDS011;56075;51.264;7.150;2023-04-16T05:32:23;81.60;;;24.13;;
20832;SDS011;56075;51.264;7.150;2023-04-16T05:34:55;83.17;;;24.47;;
20832;SDS011;56075;51.264;7.150;2023-04-16T05:37:26;95.00;;;25.87;;
20832;SDS011;56075;51.264;7.150;2023-04-16T05:39:57;82.90;;;23.93;;
20832;SDS011;56075;51.264;7.150;2023-04-16T05:42:29;87.60;;;26.13;;
20832;SDS011;56075;51.264;7.150;2023-04-16T05:45:01;86.63;;;24.97;;
20832;SDS011;56075;51.264;7.150;2023-04-16T05:47:34;84.10;;;26.27;;
20832;SDS011;56075;51.264;7.150;2023-04-16T05:50:05;90.83;;;26.97;;
20832;SDS011;56075;51.264;7.150;2023-04-16T05:52:37;83.67;;;25.43;;
20832;SDS011;56075;51.264;7.150;2023-04-16T05:55:08;89.40;;;29.13;;
20832;SDS011;56075;51.264;7.150;2023-04-16T05:57:39;91.93;;;25.70;;
20832;SDS011;56075;51.264;7.150;2023-04-16T06:00:11;77.40;;;25.83;;
20832;SDS011;56075;51.264;7.150;2023-04-16T06:02:45;76.90;;;24.00;;
20832;SDS011;56075;51.264;7.150;2023-04-16T06:05:16;77.17;;;23.73;;
20832;SDS011;56075;51.264;7.150;2023-04-16T06:07:47;78.27;;;25.37;;
20832;SDS011;56075;51.264;7.150;2023-04-16T06:10:18;80.77;;;25.77;;
20832;SDS011;56075;51.264;7.150;2023-04-16T06:12:50;69.13;;;23.73;;
20832;SDS011;56075;51.264;7.150;2023-04-16T06:15:21;72.43;;;24.20;;
20832;SDS011;56075;51.264;7.150;2023-04-16T06:17:52;80.57;;;27.30;;
20832;SDS011;56075;51.264;7.150;2023-04-16T06:20:24;66.60;;;23.90;;
20832;SDS011;56075;51.264;7.150;2023-04-16T06:22:55;76.37;;;25.27;;
20832;SDS011;56075;51.264;7.150;2023-04-16T06:25:26;70.10;;;22.10;;
20832;SDS011;56075;51.264;7.150;2023-04-16T06:27:57;67.90;;;23.27;;
20832;SDS011;56075;51.264;7.150;2023-04-16T06:30:29;65.50;;;25.07;;
20832;SDS011;56075;51.264;7.150;2023-04-16T06:33:00;63.20;;;22.50;;
20832;SDS011;56075;51.264;7.150;2023-04-16T06:35:31;71.57;;;25.40;;
20832;SDS011;56075;51.264;7.150;2023-04-16T06:38:02;75.17;;;25.10;;
20832;SDS011;56075;51.264;7.150;2023-04-16T06:40:33;64.53;;;22.53;;
20832;SDS011;56075;51.264;7.150;2023-04-16T06:43:07;64.97;;;23.63;;
20832;SDS011;56075;51.264;7.150;2023-04-16T06:45:38;60.77;;;21.47;;
20832;SDS011;56075;51.264;7.150;2023-04-16T06:48:09;60.70;;;22.70;;
20832;SDS011;56075;51.264;7.150;2023-04-16T06:50:40;58.80;;;22.27;;
20832;SDS011;56075;51.264;7.150;2023-04-16T06:53:13;63.30;;;22.07;;
20832;SDS011;56075;51.264;7.150;2023-04-16T06:55:44;67.47;;;24.63;;
20832;SDS011;56075;51.264;7.150;2023-04-16T06:58:15;62.40;;;23.23;;
20832;SDS011;56075;51.264;7.150;2023-04-16T07:00:46;64.07;;;22.53;;
20832;SDS011;56075;51.264;7.150;2023-04-16T07:03:18;60.53;;;23.40;;
20832;SDS011;56075;51.264;7.150;2023-04-16T07:05:49;65.07;;;23.57;;
20832;SDS011;56075;51.264;7.150;2023-04-16T07:08:20;64.40;;;23.57;;
20832;SDS011;56075;51.264;7.150;2023-04-16T07:10:51;58.87;;;23.30;;
20832;SDS011;56075;51.264;7.150;2023-04-16T07:13:23;65.80;;;23.67;;
20832;SDS011;56075;51.264;7.150;2023-04-16T07:15:54;61.83;;;23.40;;
20832;SDS011;56075;51.264;7.150;2023-04-16T07:18:26;64.27;;;22.67;;
20832;SDS011;56075;51.264;7.150;2023-04-16T07:20:57;66.33;;;23.00;;
20832;SDS011;56075;51.264;7.150;2023-04-16T07:23:28;68.70;;;25.03;;
20832;SDS011;56075;51.264;7.150;2023-04-16T07:26:00;61.63;;;23.03;;
20832;SDS011;56075;51.264;7.150;2023-04-16T07:28:31;67.90;;;24.00;;
20832;SDS011;56075;51.264;7.150;2023-04-16T07:31:02;65.10;;;25.50;;
20832;SDS011;56075;51.264;7.150;2023-04-16T07:33:34;74.03;;;26.70;;
20832;SDS011;56075;51.264;7.150;2023-04-16T07:36:05;82.67;;;30.57;;
20832;SDS011;56075;51.264;7.150;2023-04-16T07:38:36;96.63;;;33.53;;
20832;SDS011;56075;51.264;7.150;2023-04-16T07:41:08;82.70;;;29.13;;
20832;SDS011;56075;51.264;7.150;2023-04-16T07:43:39;79.47;;;28.47;;
20832;SDS011;56075;51.264;7.150;2023-04-16T07:46:10;79.93;;;27.97;;
20832;SDS011;56075;51.264;7.150;2023-04-16T07:48:41;72.23;;;26.23;;
20832;SDS011;56075;51.264;7.150;2023-04-16T07:51:13;74.43;;;27.93;;
20832;SDS011;56075;51.264;7.150;2023-04-16T07:53:44;74.40;;;27.93;;
20832;SDS011;56075;51.264;7.150;2023-04-16T07:56:15;67.43;;;25.07;;
20832;SDS011;56075;51.264;7.150;2023-04-16T07:58:46;68.17;;;27.40;;
20832;SDS011;56075;51.264;7.150;2023-04-16T08:01:18;68.07;;;28.83;;
20832;SDS011;56075;51.264;7.150;2023-04-16T08:03:49;70.27;;;25.33;;
20832;SDS011;56075;51.264;7.150;2023-04-16T08:06:21;59.70;;;23.73;;
20832;SDS011;56075;51.264;7.150;2023-04-16T08:08:52;68.93;;;26.20;;
20832;SDS011;56075;51.264;7.150;2023-04-16T08:11:23;62.13;;;24.40;;
20832;SDS011;56075;51.264;7.150;2023-04-16T08:13:55;62.95;;;28.10;;
20832;SDS011;56075;51.264;7.150;2023-04-16T08:16:26;65.87;;;27.37;;
20832;SDS011;56075;51.264;7.150;2023-04-16T08:18:57;78.38;;;30.20;;
20832;SDS011;56075;51.264;7.150;2023-04-16T08:21:30;58.25;;;23.10;;
20832;SDS011;56075;51.264;7.150;2023-04-16T08:24:02;52.08;;;21.38;;
20832;SDS011;56075;51.264;7.150;2023-04-16T08:26:33;78.05;;;30.67;;
20832;SDS011;56075;51.264;7.150;2023-04-16T08:29:04;74.50;;;28.58;;
20832;SDS011;56075;51.264;7.150;2023-04-16T08:31:35;69.93;;;29.38;;
20832;SDS011;56075;51.264;7.150;2023-04-16T08:34:06;65.32;;;26.95;;
20832;SDS011;56075;51.264;7.150;2023-04-16T08:36:37;59.97;;;24.88;;
20832;SDS011;56075;51.264;7.150;2023-04-16T08:39:10;51.25;;;21.60;;
20832;SDS011;56075;51.264;7.150;2023-04-16T08:41:42;57.47;;;23.13;;
20832;SDS011;56075;51.264;7.150;2023-04-16T08:44:29;55.35;;;23.75;;
20832;SDS011;56075;51.264;7.150;2023-04-16T08:47:02;55.08;;;23.13;;
20832;SDS011;56075;51.264;7.150;2023-04-16T08:49:40;64.53;;;26.90;;
20832;SDS011;56075;51.264;7.150;2023-04-16T08:52:17;48.75;;;19.65;;
20832;SDS011;56075;51.264;7.150;2023-04-16T08:57:46;49.58;;;20.63;;
20832;SDS011;56075;51.264;7.150;2023-04-16T09:00:20;47.85;;;21.15;;
20832;SDS011;56075;51.264;7.150;2023-04-16T09:02:51;42.25;;;17.77;;
20832;SDS011;56075;51.264;7.150;2023-04-16T09:05:23;44.05;;;19.38;;
20832;SDS011;56075;51.264;7.150;2023-04-16T09:07:55;49.65;;;21.38;;
20832;SDS011;56075;51.264;7.150;2023-04-16T09:10:27;49.72;;;21.60;;
20832;SDS011;56075;51.264;7.150;2023-04-16T09:12:58;41.60;;;19.58;;
20832;SDS011;56075;51.264;7.150;2023-04-16T09:15:29;42.10;;;20.02;;
20832;SDS011;56075;51.264;7.150;2023-04-16T09:18:01;47.72;;;21.00;;
20832;SDS011;56075;51.264;7.150;2023-04-16T09:20:33;54.00;;;22.90;;
20832;SDS011;56075;51.264;7.150;2023-04-16T09:23:05;43.95;;;19.55;;
20832;SDS011;56075;51.264;7.150;2023-04-16T09:25:36;48.28;;;22.20;;
20832;SDS011;56075;51.264;7.150;2023-04-16T09:28:08;54.53;;;23.48;;
20832;SDS011;56075;51.264;7.150;2023-04-16T09:30:40;37.90;;;17.42;;
20832;SDS011;56075;51.264;7.150;2023-04-16T09:33:16;46.92;;;21.13;;
20832;SDS011;56075;51.264;7.150;2023-04-16T09:35:53;45.92;;;20.17;;
20832;SDS011;56075;51.264;7.150;2023-04-16T09:38:25;37.50;;;17.38;;
20832;SDS011;56075;51.264;7.150;2023-04-16T09:41:06;34.08;;;15.95;;
20832;SDS011;56075;51.264;7.150;2023-04-16T09:43:37;39.92;;;17.52;;
20832;SDS011;56075;51.264;7.150;2023-04-16T09:46:09;34.22;;;15.65;;
20832;SDS011;56075;51.264;7.150;2023-04-16T09:48:42;32.35;;;15.45;;
20832;SDS011;56075;51.264;7.150;2023-04-16T09:51:15;30.80;;;15.32;;
20832;SDS011;56075;51.264;7.150;2023-04-16T09:53:50;28.25;;;14.63;;
20832;SDS011;56075;51.264;7.150;2023-04-16T09:56:23;36.60;;;16.60;;
20832;SDS011;56075;51.264;7.150;2023-04-16T09:58:59;35.03;;;17.23;;
20832;SDS011;56075;51.264;7.150;2023-04-16T10:01:31;37.55;;;17.35;;
20832;SDS011;56075;51.264;7.150;2023-04-16T10:04:02;33.38;;;15.35;;
20832;SDS011;56075;51.264;7.150;2023-04-16T10:06:36;35.05;;;16.25;;
20832;SDS011;56075;51.264;7.150;2023-04-16T10:09:07;47.17;;;22.73;;
20832;SDS011;56075;51.264;7.150;2023-04-16T10:11:40;35.38;;;18.08;;
20832;SDS011;56075;51.264;7.150;2023-04-16T10:14:11;36.22;;;17.15;;
20832;SDS011;56075;51.264;7.150;2023-04-16T10:16:42;35.72;;;17.73;;
20832;SDS011;56075;51.264;7.150;2023-04-16T10:19:13;41.22;;;18.67;;
20832;SDS011;56075;51.264;7.150;2023-04-16T10:21:46;31.60;;;15.73;;
20832;SDS011;56075;51.264;7.150;2023-04-16T10:24:17;28.55;;;13.95;;
20832;SDS011;56075;51.264;7.150;2023-04-16T10:26:49;35.78;;;17.20;;
20832;SDS011;56075;51.264;7.150;2023-04-16T10:29:21;30.67;;;15.90;;
20832;SDS011;56075;51.264;7.150;2023-04-16T10:31:54;68.28;;;26.70;;
20832;SDS011;56075;51.264;7.150;2023-04-16T10:34:26;45.22;;;19.13;;
20832;SDS011;56075;51.264;7.150;2023-04-16T10:36:58;31.92;;;14.93;;
20832;SDS011;56075;51.264;7.150;2023-04-16T10:39:29;29.70;;;14.80;;
20832;SDS011;56075;51.264;7.150;2023-04-16T10:42:07;27.02;;;14.43;;
20832;SDS011;56075;51.264;7.150;2023-04-16T10:44:40;25.77;;;13.05;;
20832;SDS011;56075;51.264;7.150;2023-04-16T10:47:12;29.13;;;14.27;;
20832;SDS011;56075;51.264;7.150;2023-04-16T10:49:43;30.52;;;15.38;;
20832;SDS011;56075;51.264;7.150;2023-04-16T10:52:17;30.33;;;15.00;;
20832;SDS011;56075;51.264;7.150;2023-04-16T10:54:48;26.67;;;13.82;;
20832;SDS011;56075;51.264;7.150;2023-04-16T10:57:22;26.92;;;13.50;;
20832;SDS011;56075;51.264;7.150;2023-04-16T10:59:59;30.30;;;14.82;;
20832;SDS011;56075;51.264;7.150;2023-04-16T11:02:30;30.70;;;14.20;;
20832;SDS011;56075;51.264;7.150;2023-04-16T11:05:01;31.33;;;16.23;;
20832;SDS011;56075;51.264;7.150;2023-04-16T11:07:33;27.05;;;13.40;;
20832;SDS011;56075;51.264;7.150;2023-04-16T11:10:05;27.02;;;13.90;;
20832;SDS011;56075;51.264;7.150;2023-04-16T11:12:42;32.70;;;16.20;;
20832;SDS011;56075;51.264;7.150;2023-04-16T11:15:16;31.30;;;16.33;;
20832;SDS011;56075;51.264;7.150;2023-04-16T11:17:51;29.55;;;15.43;;
20832;SDS011;56075;51.264;7.150;2023-04-16T11:20:23;28.95;;;13.55;;
20832;SDS011;56075;51.264;7.150;2023-04-16T11:22:56;26.45;;;14.25;;
20832;SDS011;56075;51.264;7.150;2023-04-16T11:25:28;23.48;;;12.57;;
20832;SDS011;56075;51.264;7.150;2023-04-16T11:28:00;26.55;;;13.63;;
20832;SDS011;56075;51.264;7.150;2023-04-16T11:30:38;27.00;;;13.02;;
20832;SDS011;56075;51.264;7.150;2023-04-16T11:33:11;25.85;;;12.98;;
20832;SDS011;56075;51.264;7.150;2023-04-16T11:35:42;27.48;;;12.65;;
20832;SDS011;56075;51.264;7.150;2023-04-16T11:38:16;23.25;;;12.40;;
20832;SDS011;56075;51.264;7.150;2023-04-16T11:40:48;22.17;;;12.40;;
20832;SDS011;56075;51.264;7.150;2023-04-16T11:43:21;23.80;;;12.05;;
20832;SDS011;56075;51.264;7.150;2023-04-16T11:45:59;22.65;;;11.82;;
20832;SDS011;56075;51.264;7.150;2023-04-16T11:48:44;23.60;;;10.95;;
20832;SDS011;56075;51.264;7.150;2023-04-16T11:51:17;20.05;;;11.20;;
20832;SDS011;56075;51.264;7.150;2023-04-16T11:53:50;20.33;;;11.02;;
20832;SDS011;56075;51.264;7.150;2023-04-16T11:56:29;21.17;;;10.82;;
20832;SDS011;56075;51.264;7.150;2023-04-16T11:59:06;20.17;;;11.00;;
20832;SDS011;56075;51.264;7.150;2023-04-16T12:01:46;19.67;;;10.88;;
20832;SDS011;56075;51.264;7.150;2023-04-16T12:04:19;19.77;;;10.50;;
20832;SDS011;56075;51.264;7.150;2023-04-16T12:09:42;21.35;;;10.82;;
20832;SDS011;56075;51.264;7.150;2023-04-16T12:12:26;22.50;;;11.63;;
20832;SDS011;56075;51.264;7.150;2023-04-16T12:15:00;21.60;;;11.50;;
20832;SDS011;56075;51.264;7.150;2023-04-16T12:17:33;19.98;;;11.02;;
20832;SDS011;56075;51.264;7.150;2023-04-16T12:22:46;20.77;;;10.98;;
20832;SDS011;56075;51.264;7.150;2023-04-16T12:25:18;21.92;;;11.75;;
20832;SDS011;56075;51.264;7.150;2023-04-16T12:27:50;22.10;;;12.45;;
20832;SDS011;56075;51.264;7.150;2023-04-16T12:30:25;21.60;;;12.02;;
20832;SDS011;56075;51.264;7.150;2023-04-16T12:33:13;22.35;;;12.45;;
20832;SDS011;56075;51.264;7.150;2023-04-16T12:35:47;22.02;;;12.13;;
20832;SDS011;56075;51.264;7.150;2023-04-16T12:38:19;21.95;;;11.65;;
20832;SDS011;56075;51.264;7.150;2023-04-16T12:40:50;21.88;;;11.68;;
20832;SDS011;56075;51.264;7.150;2023-04-16T12:43:22;21.48;;;11.73;;
20832;SDS011;56075;51.264;7.150;2023-04-16T12:45:53;20.65;;;11.27;;
20832;SDS011;56075;51.264;7.150;2023-04-16T12:48:24;21.65;;;11.63;;
20832;SDS011;56075;51.264;7.150;2023-04-16T12:50:55;20.42;;;11.60;;
20832;SDS011;56075;51.264;7.150;2023-04-16T12:53:26;22.67;;;11.77;;
20832;SDS011;56075;51.264;7.150;2023-04-16T12:55:58;21.95;;;12.15;;
20832;SDS011;56075;51.264;7.150;2023-04-16T12:58:29;22.00;;;11.75;;
20832;SDS011;56075;51.264;7.150;2023-04-16T13:01:01;20.77;;;11.48;;
20832;SDS011;56075;51.264;7.150;2023-04-16T13:03:32;20.00;;;11.48;;
20832;SDS011;56075;51.264;7.150;2023-04-16T13:06:06;22.73;;;11.27;;
20832;SDS011;56075;51.264;7.150;2023-04-16T13:08:37;20.00;;;10.95;;
20832;SDS011;56075;51.264;7.150;2023-04-16T13:11:09;21.88;;;12.15;;
20832;SDS011;56075;51.264;7.150;2023-04-16T13:13:41;20.48;;;11.05;;
20832;SDS011;56075;51.264;7.150;2023-04-16T13:16:12;22.38;;;12.13;;
20832;SDS011;56075;51.264;7.150;2023-04-16T13:18:43;23.83;;;12.27;;
20832;SDS011;56075;51.264;7.150;2023-04-16T13:21:15;21.73;;;11.75;;
20832;SDS011;56075;51.264;7.150;2023-04-16T13:23:46;21.15;;;11.65;;
20832;SDS011;56075;51.264;7.150;2023-04-16T13:26:17;21.05;;;11.40;;
20832;SDS011;56075;51.264;7.150;2023-04-16T13:28:48;19.63;;;11.20;;
20832;SDS011;56075;51.264;7.150;2023-04-16T13:31:20;21.80;;;11.98;;
20832;SDS011;56075;51.264;7.150;2023-04-16T13:33:51;22.95;;;11.32;;
20832;SDS011;56075;51.264;7.150;2023-04-16T13:36:22;22.73;;;11.20;;
20832;SDS011;56075;51.264;7.150;2023-04-16T13:38:54;20.08;;;11.02;;
20832;SDS011;56075;51.264;7.150;2023-04-16T13:41:25;23.25;;;11.38;;
20832;SDS011;56075;51.264;7.150;2023-04-16T13:43:56;20.80;;;10.90;;
20832;SDS011;56075;51.264;7.150;2023-04-16T13:46:28;20.55;;;11.27;;
20832;SDS011;56075;51.264;7.150;2023-04-16T13:48:59;18.58;;;10.88;;
20832;SDS011;56075;51.264;7.150;2023-04-16T13:51:30;20.95;;;11.57;;
20832;SDS011;56075;51.264;7.150;2023-04-16T13:54:02;20.17;;;11.98;;
20832;SDS011;56075;51.264;7.150;2023-04-16T13:56:33;22.15;;;11.75;;
20832;SDS011;56075;51.264;7.150;2023-04-16T13:59:05;21.30;;;11.20;;
20832;SDS011;56075;51.264;7.150;2023-04-16T14:01:36;20.85;;;11.10;;
20832;SDS011;56075;51.264;7.150;2023-04-16T14:04:08;22.25;;;11.38;;
20832;SDS011;56075;51.264;7.150;2023-04-16T14:06:39;19.75;;;11.52;;
20832;SDS011;56075;51.264;7.150;2023-04-16T14:09:10;21.45;;;11.38;;
20832;SDS011;56075;51.264;7.150;2023-04-16T14:11:41;21.48;;;11.55;;
20832;SDS011;56075;51.264;7.150;2023-04-16T14:14:12;21.45;;;11.15;;
20832;SDS011;56075;51.264;7.150;2023-04-16T14:16:43;19.23;;;10.35;;
20832;SDS011;56075;51.264;7.150;2023-04-16T14:19:15;20.33;;;11.10;;
20832;SDS011;56075;51.264;7.150;2023-04-16T14:21:46;21.85;;;11.48;;
20832;SDS011;56075;51.264;7.150;2023-04-16T14:24:17;22.40;;;11.07;;
20832;SDS011;56075;51.264;7.150;2023-04-16T14:26:48;21.42;;;10.98;;
20832;SDS011;56075;51.264;7.150;2023-04-16T14:29:19;23.10;;;11.65;;
20832;SDS011;56075;51.264;7.150;2023-04-16T14:31:51;22.75;;;12.02;;
20832;SDS011;56075;51.264;7.150;2023-04-16T14:34:22;23.48;;;11.95;;
20832;SDS011;56075;51.264;7.150;2023-04-16T14:36:53;25.67;;;12.50;;
20832;SDS011;56075;51.264;7.150;2023-04-16T14:39:24;23.00;;;12.23;;
20832;SDS011;56075;51.264;7.150;2023-04-16T14:41:56;27.15;;;13.52;;
20832;SDS011;56075;51.264;7.150;2023-04-16T14:44:27;26.33;;;12.77;;
20832;SDS011;56075;51.264;7.150;2023-04-16T14:46:58;24.45;;;13.13;;
20832;SDS011;56075;51.264;7.150;2023-04-16T14:49:30;23.08;;;12.65;;
20832;SDS011;56075;51.264;7.150;2023-04-16T14:52:01;23.45;;;13.00;;
20832;SDS011;56075;51.264;7.150;2023-04-16T14:54:35;22.25;;;12.80;;
20832;SDS011;56075;51.264;7.150;2023-04-16T14:57:06;24.75;;;12.55;;
20832;SDS011;56075;51.264;7.150;2023-04-16T14:59:37;24.23;;;12.70;;